KFLG/FLG METAR and TAF weather

Enter ICAO airport designator
Station Type Date Time Source
KFLG METAR 2018/12/15 03:57 UTC NOAA

KFLG 150357Z AUTO 00000KT 10SM CLR M02/M10 A3032 RMK AO2 SLP276 T10221100


Station Type Date Time Source
KFLG Decoded METAR 2018/12/15 03:57 UTC NOAA

FLAGSTAFF PULLIAM AIRPORT, AZ, United States (KFLG) 35-08N 111-40W 2134M
Dec 14, 2018 - 10:57 PM EST / 2018.12.15 0357 UTC
Wind: Calm:0
Visibility: 10 mile(s):0
Sky conditions: clear
Temperature: 28.0 F (-2.2 C)
Dew Point: 14.0 F (-10.0 C)
Relative Humidity: 55%
Pressure (altimeter): 30.32 in. Hg (1026 hPa)
ob: KFLG 150357Z AUTO 00000KT 10SM CLR M02/M10 A3032 RMK AO2 SLP276 T10221100
cycle: 4

Station Type Date Time Source
KFLG TAF 2018/12/14 18:22 UTC NOAA

TAF KFLG 141720Z 1418/1518 15010KT P6SM FEW150 BKN250
FM150000 VRB05KT P6SM SCT110 BKN150


Example: see airport list